Portada
METAR-TAF:

METAR-TAF

Aeropuertos :

Melilla, España

Aeropuerto de Melilla

latitud: 35-17N, longitud: 002-57W, altitud: 47 m

Observación

El informe se hizo hace 10 minutos, a las 16:30 UTC
Viento 8 kt del norte, variando entre oeste-noroeste y noreste
Temperatura 24°C
Humedad 61%
Presión 1016 hPa
Visibilidad 10 km o más
Escasas nubes a una altura de 2600 ft

METAR: GEML 281630Z 35008KT 290V050 9999 FEW026 24/16 Q1016

Hora: 18:40 (16:40 UTC)

Pronóstico

El informe se hizo hace 2 horas y 40 minutos, a las 14:00 UTC
Pronóstico válido del 28 a las 15 UTC al 29 a las 15 UTC
Viento 9 kt del noreste
Visibilidad 10 km o más
Nubes dispersas a una altura de 2000 ft
Probabilidad 40% :
Temporalmente
del 28 a las 22 UTC al 29 a las 12 UTC
Viento 10 kt del oeste
Visibilidad: 2000 m
Cielo nuboso a una altura de 600 ft
neblina

TAF: GEML 281400Z 2815/2915 05009KT 9999 SCT020 TX23/2914Z TN18/2905Z PROB40 TEMPO 2822/2912 27010KT 2000 BR BKN006

Observaciones y pronósticos meteorológicos de más de 4000 aeropuertos (mensajes METAR y TAF).

Los puntos amarillos y rojos representan las estaciones disponibles.

Ponga el ratón en el punto deseado para ver el nombre de la estación.

Haga clic para ver las observaciones y los pronósticos meteorológicos.

Para cambiar el mapa : haga clic en los botones verdes con una cruz de color negro para hacer un zoom, en el botón verde con un guión para alejar o en las flechas verdes para mapas adyacentes.


METAR-TAF: